| time (UTC) | temp F | wind direction | speed knots | gust knots | rain 1hr in | rain 24hr in | rain mn in | humidity % | barometer mb |
| 20260507100059 | 54 | 132 | 3.5 | 6.1 | 0.00 | 0.00 | 0.00 | 65 | 1016.6 |
| 20260507094555 | 54 | 117 | 0.0 | 6.1 | 0.00 | 0.00 | 0.00 | 66 | 1016.5 |
| 20260507093055 | 54 | 0 | 0.0 | 4.3 | 0.00 | 0.00 | 0.00 | 67 | 1016.6 |
| 20260507091601 | 54 | 87 | 3.5 | 7.0 | 0.00 | 0.00 | 0.00 | 64 | 1016.6 |
| 20260507090056 | 54 | 120 | 2.6 | 7.0 | 0.00 | 0.00 | 0.00 | 66 | 1016.5 |
| 20260507084559 | 53 | 96 | 2.6 | 7.0 | 0.00 | 0.00 | 0.00 | 68 | 1016.4 |
| 20260507083056 | 53 | 173 | 1.7 | 5.2 | 0.00 | 0.00 | 0.00 | 71 | 1016.4 |
| 20260507081552 | 52 | 89 | 0.0 | 6.1 | 0.00 | 0.00 | 0.00 | 73 | 1016.3 |
| 20260507080121 | 51 | 46 | 1.7 | 5.2 | 0.00 | 0.00 | 0.00 | 74 | 1016.3 |
| 20260507074601 | 51 | 38 | 0.0 | 5.2 | 0.00 | 0.00 | 0.00 | 75 | 1016.1 |
| 20260507073108 | 50 | 111 | 1.7 | 5.2 | 0.00 | 0.00 | 0.00 | 76 | 1016.1 |
| 20260507071606 | 49 | 82 | 1.7 | 5.2 | 0.00 | 0.00 | 0.00 | 79 | 1016.0 |
| 20260507070054 | 48 | 87 | 2.6 | 7.8 | 0.00 | 0.00 | 0.00 | 81 | 1016.0 |
| 20260507064557 | 47 | 71 | 1.7 | 6.1 | 0.00 | 0.00 | 0.00 | 82 | 1015.9 |
| 20260507063058 | 47 | 75 | 1.7 | 6.1 | 0.00 | 0.00 | 0.00 | 83 | 1016.0 |
| 20260507061554 | 46 | 51 | 0.9 | 3.5 | 0.00 | 0.00 | 0.00 | 83 | 1015.9 |
| 20260507060053 | 46 | 44 | 0.9 | 4.3 | 0.00 | 0.00 | 0.00 | 83 | 1015.8 |
| 20260507054605 | 46 | 28 | 0.0 | 3.5 | 0.00 | 0.00 | 0.00 | 83 | 1015.7 |
| 20260507053055 | 46 | 33 | 0.9 | 4.3 | 0.00 | 0.00 | 0.00 | 83 | 1015.7 |
| 20260507051552 | 46 | 32 | 0.0 | 2.6 | 0.00 | 0.00 | 0.00 | 83 | 1015.6 |
| 20260507050057 | 46 | 36 | 0.0 | 3.5 | 0.00 | 0.00 | 0.00 | 83 | 1015.5 |
| 20260507044600 | 46 | 42 | 0.0 | 3.5 | 0.00 | 0.00 | 0.00 | 83 | 1015.4 |
| 20260507043052 | 46 | 0 | 0.0 | 4.3 | 0.00 | 0.00 | 0.00 | 83 | 1015.3 |
| 20260507041601 | 46 | 0 | 0.9 | 2.6 | 0.00 | 0.00 | 0.00 | 83 | 1015.3 |
| 20260507040105 | 46 | 36 | 0.0 | 2.6 | 0.00 | 0.00 | 0.00 | 83 | 1015.3 |
| 20260507034559 | 46 | 27 | 0.9 | 2.6 | 0.00 | 0.00 | 0.00 | 83 | 1015.3 |
| 20260507033057 | 46 | 0 | 0.0 | 2.6 | 0.00 | 0.00 | 0.00 | 83 | 1015.2 |
| 20260507031606 | 46 | 32 | 0.0 | 2.6 | 0.00 | 0.00 | 0.00 | 83 | 1015.3 |
| 20260507030056 | 46 | 0 | 0.0 | 2.6 | 0.00 | 0.00 | 0.00 | 83 | 1015.3 |
| 20260507024557 | 46 | 5 | 0.0 | 2.6 | 0.00 | 0.00 | 0.00 | 83 | 1015.3 |
| 20260507023056 | 46 | 25 | 0.0 | 3.5 | 0.00 | 0.00 | 0.00 | 82 | 1015.2 |
| 20260507021556 | 46 | 0 | 0.0 | 2.6 | 0.00 | 0.00 | 0.00 | 82 | 1015.2 |
| 20260507014608 | 46 | 30 | 0.0 | 2.6 | 0.00 | 0.00 | 0.00 | 81 | 1015.1 |
| 20260507013054 | 47 | 0 | 0.0 | 2.6 | 0.00 | 0.00 | 0.00 | 81 | 1015.1 |
| 20260507011603 | 47 | 50 | 0.9 | 3.5 | 0.00 | 0.00 | 0.00 | 81 | 1015.0 |
| 20260507010057 | 47 | 64 | 0.0 | 2.6 | 0.00 | 0.00 | 0.00 | 81 | 1015.0 |
| 20260507004602 | 47 | 0 | 0.0 | 2.6 | 0.00 | 0.00 | 0.00 | 81 | 1015.0 |
| 20260507003104 | 47 | 57 | 0.9 | 3.5 | 0.00 | 0.00 | 0.00 | 80 | 1015.0 |
| 20260507001615 | 48 | 0 | 0.0 | 2.6 | 0.00 | 0.00 | 0.00 | 80 | 1015.0 |
| 20260507000059 | 48 | 0 | 0.9 | 4.3 | 0.00 | 0.00 | 0.00 | 80 | 1015.2 |
| 20260506234607 | 48 | 0 | 1.7 | 3.5 | 0.00 | 0.00 | 0.00 | 80 | 1015.2 |
| 20260506233056 | 48 | 77 | 0.9 | 4.3 | 0.00 | 0.00 | 0.00 | 80 | 1015.2 |
| 20260506231558 | 48 | 51 | 1.7 | 5.2 | 0.00 | 0.00 | 0.00 | 80 | 1015.1 |
| 20260506230100 | 48 | 74 | 0.0 | 3.5 | 0.00 | 0.00 | 0.00 | 80 | 1015.0 |
| 20260506224556 | 48 | 76 | 0.9 | 3.5 | 0.00 | 0.00 | 0.00 | 80 | 1014.9 |
| 20260506223104 | 48 | 75 | 1.7 | 5.2 | 0.00 | 0.00 | 0.00 | 80 | 1014.9 |
| 20260506221557 | 49 | 0 | 0.0 | 3.5 | 0.00 | 0.00 | 0.00 | 80 | 1014.9 |
| 20260506220107 | 49 | 85 | 0.0 | 3.5 | 0.00 | 0.00 | 0.00 | 80 | 1014.6 |
| 20260506214602 | 49 | 78 | 0.9 | 2.6 | 0.00 | 0.00 | 0.00 | 80 | 1014.6 |
| 20260506213102 | 49 | 88 | 0.9 | 3.5 | 0.00 | 0.00 | 0.00 | 80 | 1014.6 |
| 20260506211559 | 49 | 77 | 0.9 | 4.3 | 0.00 | 0.00 | 0.00 | 80 | 1014.5 |
| 20260506210117 | 50 | 76 | 1.7 | 3.5 | 0.00 | 0.00 | 0.00 | 79 | 1014.5 |
| 20260506204555 | 50 | 79 | 0.9 | 3.5 | 0.00 | 0.00 | 0.00 | 78 | 1014.5 |
| 20260506203139 | 51 | 76 | 0.9 | 3.5 | 0.00 | 0.00 | 0.00 | 77 | 1014.3 |
| 20260506201555 | 51 | 40 | 1.7 | 7.0 | 0.00 | 0.00 | 0.00 | 74 | 1014.2 |
| 20260506200059 | 52 | 57 | 0.9 | 4.3 | 0.00 | 0.00 | 0.00 | 72 | 1014.1 |
| 20260506194559 | 52 | 61 | 0.9 | 4.3 | 0.00 | 0.00 | 0.00 | 72 | 1014.0 |
| 20260506193058 | 52 | 0 | 0.0 | 4.3 | 0.00 | 0.00 | 0.00 | 71 | 1013.8 |
| 20260506191559 | 52 | 45 | 1.7 | 5.2 | 0.00 | 0.00 | 0.00 | 71 | 1013.7 |
| 20260506190058 | 52 | 0 | 0.9 | 4.3 | 0.00 | 0.00 | 0.00 | 70 | 1013.5 |
| 20260506184601 | 52 | 67 | 0.9 | 5.2 | 0.00 | 0.00 | 0.00 | 69 | 1013.5 |
| 20260506183101 | 52 | 0 | 0.9 | 7.0 | 0.00 | 0.00 | 0.00 | 69 | 1013.4 |
| 20260506181600 | 53 | 36 | 0.9 | 6.1 | 0.00 | 0.00 | 0.00 | 67 | 1013.4 |
| 20260506180055 | 54 | 38 | 1.7 | 7.8 | 0.00 | 0.00 | 0.00 | 66 | 1013.1 |
| 20260506174607 | 53 | 346 | 2.6 | 7.8 | 0.00 | 0.00 | 0.00 | 65 | 1012.9 |
| 20260506173059 | 54 | 38 | 1.7 | 6.1 | 0.00 | 0.00 | 0.00 | 64 | 1012.9 |
| 20260506171602 | 54 | 54 | 0.9 | 6.1 | 0.00 | 0.00 | 0.00 | 65 | 1012.8 |
| 20260506170100 | 54 | 5 | 2.6 | 7.8 | 0.00 | 0.00 | 0.00 | 65 | 1012.7 |
| 20260506164557 | 55 | 15 | 2.6 | 7.8 | 0.00 | 0.00 | 0.00 | 65 | 1012.7 |
| 20260506163116 | 55 | 34 | 2.6 | 9.6 | 0.00 | 0.00 | 0.00 | 65 | 1012.7 |
| 20260506161552 | 54 | 66 | 2.6 | 8.7 | 0.00 | 0.00 | 0.00 | 65 | 1012.8 |
| 20260506160108 | 54 | 32 | 3.5 | 10.4 | 0.00 | 0.00 | 0.00 | 65 | 1012.8 |
| 20260506154558 | 54 | 360 | 2.6 | 7.8 | 0.00 | 0.00 | 0.00 | 68 | 1012.9 |
| 20260506153114 | 54 | 350 | 2.6 | 11.3 | 0.00 | 0.00 | 0.00 | 66 | 1012.9 |
| 20260506151555 | 53 | 24 | 2.6 | 8.7 | 0.00 | 0.00 | 0.00 | 68 | 1012.9 |
| 20260506150058 | 54 | 53 | 2.6 | 7.8 | 0.00 | 0.00 | 0.00 | 67 | 1012.9 |
| 20260506144610 | 54 | 9 | 3.5 | 9.6 | 0.00 | 0.00 | 0.00 | 64 | 1012.8 |
| 20260506143056 | 54 | 11 | 7.0 | 14.8 | 0.00 | 0.00 | 0.00 | 64 | 1012.6 |
| 20260506141556 | 54 | 338 | 4.3 | 13.9 | 0.00 | 0.00 | 0.00 | 64 | 1012.7 |
| 20260506140104 | 54 | 5 | 4.3 | 11.3 | 0.00 | 0.00 | 0.00 | 62 | 1012.5 |
| 20260506134600 | 55 | 350 | 4.3 | 11.3 | 0.00 | 0.00 | 0.00 | 62 | 1012.5 |
| 20260506133100 | 55 | 55 | 5.2 | 13.9 | 0.00 | 0.00 | 0.00 | 60 | 1012.4 |
| 20260506131601 | 55 | 5 | 5.2 | 10.4 | 0.00 | 0.00 | 0.00 | 60 | 1012.4 |
| 20260506130056 | 55 | 328 | 3.5 | 13.9 | 0.00 | 0.00 | 0.00 | 62 | 1012.5 |
| 20260506124605 | 55 | 49 | 5.2 | 11.3 | 0.00 | 0.00 | 0.00 | 63 | 1012.7 |
| 20260506123111 | 56 | 310 | 3.5 | 10.4 | 0.00 | 0.00 | 0.00 | 63 | 1012.6 |
| 20260506121612 | 56 | 344 | 4.3 | 13.0 | 0.00 | 0.00 | 0.00 | 63 | 1012.6 |
| 20260506120059 | 54 | 5 | 5.2 | 13.0 | 0.00 | 0.00 | 0.00 | 66 | 1012.7 |
| 20260506114557 | 53 | 23 | 5.2 | 14.8 | 0.00 | 0.00 | 0.00 | 73 | 1012.8 |
| 20260506113056 | 51 | 327 | 6.1 | 13.0 | 0.00 | 0.00 | 0.00 | 76 | 1012.7 |
| 20260506111552 | 51 | 28 | 6.1 | 13.9 | 0.00 | 0.00 | 0.00 | 77 | 1012.7 |
| 20260506110104 | 52 | 265 | 7.0 | 13.9 | 0.00 | 0.00 | 0.00 | 77 | 1012.7 |
| 20260506104557 | 51 | 306 | 3.5 | 9.6 | 0.00 | 0.00 | 0.00 | 80 | 1012.7 |
| 20260506103056 | 50 | 333 | 3.5 | 9.6 | 0.00 | 0.00 | 0.00 | 83 | 1012.8 |
| 20260506101605 | 51 | 5 | 2.6 | 13.9 | 0.00 | 0.00 | 0.00 | 76 | 1012.7 |